Wesleyville, Canada
Current Conditions -  °F | °C
As of 2:00 AM on Tuesday 27 Jan 2015 (Local Time) from CYQX Reporting Station
Few Clouds Few Clouds  
Wind Chill: -20°   Ceiling: Unl
Heat Index: -11°   Visibility: 20mi
Dew Point: -17°   Wind: 16mph
Humidity: 62%   Direction: 280°W
Pressure: 30.29"   Gusts: 24mph
Location:  49.15°N, 53.58°W
Report Text: CYQX 270500Z 28014G21KT 20SM FEW022 FEW260 M11/M17 A3029 RMK SC1CI1 SLP268
Loading
Personal Weather Stations






























Interactive Weather Map New forecast layout! Learn more

10-Day Weather Forecast

Advertisements
Track Severe Weather on mobile